CheckWX is a tool to help pilots better visualize weather data.  It is not intended as a substitute for an official pre-flight weather briefing.

02:52:59 UTC

KLCK METAR
Rickenbacker International Airport
Columbus, Ohio, USA
Current

18 mins ago

KLCK 240235Z AUTO 00000KT 10SM CLR 03/M04 A3028 RMK AO2 T00301043
Observed
Mar-24 @ 02:35 UTC
Visibility
10 SM
Flight Rules
VFR
Cloud Levels
  • Clear skies
Temperature
C / 37°F
Dewpoint
-4°C / 25°F
Humidity
60%
Altimeter
30.28" Hg
Pressure
1025.42 hPa
Previous

38 mins ago

KLCK 240215Z AUTO 00000KT 10SM CLR 04/M04 A3028 RMK AO2 T00351044
Observed
Mar-24 @ 02:15 UTC
Visibility
10 SM
Flight Rules
VFR
Cloud Levels
  • Clear skies
Temperature
C / 39°F
Dewpoint
-4°C / 25°F
Humidity
56%
Altimeter
30.28" Hg
Pressure
1025.42 hPa
Previous

58 mins ago

KLCK 240155Z AUTO 00000KT 10SM CLR 04/M04 A3028 RMK AO2 T00421044
Observed
Mar-24 @ 01:55 UTC
Visibility
10 SM
Flight Rules
VFR
Cloud Levels
  • Clear skies
Temperature
C / 39°F
Dewpoint
-4°C / 25°F
Humidity
56%
Altimeter
30.28" Hg
Pressure
1025.42 hPa